createdAt,value
2017-11-24T00:00:44.337Z,8.60
2017-11-24T00:03:12.438Z,8.60
2017-11-24T00:05:40.558Z,8.60
2017-11-24T00:08:08.707Z,8.60
2017-11-24T00:10:37.283Z,8.70
2017-11-24T00:13:06.132Z,8.60
2017-11-24T00:15:34.232Z,8.60
2017-11-24T00:18:02.386Z,8.60
2017-11-24T00:20:30.534Z,8.50
2017-11-24T00:22:58.676Z,8.50
2017-11-24T00:25:27.538Z,8.40
2017-11-24T00:27:55.634Z,8.40
2017-11-24T00:30:24.542Z,8.50
2017-11-24T00:32:52.694Z,8.40
2017-11-24T00:35:20.910Z,8.40
2017-11-24T00:37:49.333Z,8.40
2017-11-24T00:40:17.462Z,8.30
2017-11-24T00:42:48.526Z,8.30
2017-11-24T00:45:16.633Z,8.30
2017-11-24T00:47:45.470Z,8.30
2017-11-24T00:50:13.593Z,8.30
2017-11-24T00:52:41.762Z,8.30
2017-11-24T00:55:09.878Z,8.30
2017-11-24T00:57:38.045Z,8.30
2017-11-24T01:00:07.330Z,8.30
2017-11-24T01:02:36.177Z,8.30
2017-11-24T01:05:04.322Z,8.30
2017-11-24T01:07:32.524Z,8.30
2017-11-24T01:10:00.607Z,8.30
2017-11-24T01:12:28.755Z,8.30
2017-11-24T01:14:56.838Z,8.30
2017-11-24T01:17:24.985Z,8.30
2017-11-24T01:19:53.119Z,8.20
2017-11-24T01:22:21.257Z,8.30
2017-11-24T01:24:49.671Z,8.30
2017-11-24T01:27:18.090Z,8.20
2017-11-24T01:29:46.192Z,8.20
2017-11-24T01:32:14.289Z,8.20
2017-11-24T01:34:42.421Z,8.20
2017-11-24T01:37:10.566Z,8.10
2017-11-24T01:39:38.703Z,8.20
2017-11-24T01:42:06.937Z,8.20
2017-11-24T01:44:35.365Z,8.20
2017-11-24T01:47:03.557Z,8.10
2017-11-24T01:49:32.452Z,8.10
2017-11-24T01:52:01.705Z,8.10
2017-11-24T01:54:29.826Z,8.00
2017-11-24T01:56:58.770Z,8.10
2017-11-24T01:59:26.928Z,8.00
2017-11-24T02:01:55.140Z,8.10
2017-11-24T02:04:23.310Z,8.00
2017-11-24T02:06:51.893Z,8.10
2017-11-24T02:09:20.112Z,8.10
2017-11-24T02:11:48.246Z,8.20
2017-11-24T02:14:16.381Z,8.20
2017-11-24T02:16:44.478Z,8.30
2017-11-24T02:19:12.649Z,8.40
2017-11-24T02:21:40.832Z,8.50
2017-11-24T02:24:08.994Z,8.60
2017-11-24T02:26:37.143Z,8.60
2017-11-24T02:29:05.389Z,8.70
2017-11-24T02:31:35.881Z,8.70
2017-11-24T02:34:04.029Z,8.80
2017-11-24T02:36:32.188Z,8.80
2017-11-24T02:39:01.113Z,8.70
2017-11-24T02:41:29.232Z,8.70
2017-11-24T02:43:57.393Z,8.80
2017-11-24T02:46:25.534Z,8.60
2017-11-24T02:48:53.725Z,8.60
2017-11-24T02:51:22.310Z,8.50
2017-11-24T02:53:50.465Z,8.50
2017-11-24T02:56:18.613Z,8.40
2017-11-24T02:58:46.822Z,8.40
2017-11-24T03:01:14.976Z,8.40
2017-11-24T03:03:43.100Z,8.40
2017-11-24T03:06:11.202Z,8.50
2017-11-24T03:08:39.325Z,8.50
2017-11-24T03:11:07.424Z,8.50
2017-11-24T03:13:35.521Z,8.60
2017-11-24T03:16:05.341Z,8.50
2017-11-24T03:18:33.508Z,8.40
2017-11-24T03:21:01.632Z,8.30
2017-11-24T03:23:29.712Z,8.30
2017-11-24T03:25:57.806Z,8.30
2017-11-24T03:28:25.951Z,8.20
2017-11-24T03:30:54.082Z,8.20
2017-11-24T03:33:22.181Z,8.10
2017-11-24T03:35:50.272Z,8.10
2017-11-24T03:38:18.875Z,8.10
2017-11-24T03:40:46.981Z,8.10
2017-11-24T03:43:15.052Z,8.00
2017-11-24T03:45:43.241Z,8.10
2017-11-24T03:48:11.363Z,8.10
2017-11-24T03:50:39.473Z,8.00
2017-11-24T03:53:07.597Z,8.00
2017-11-24T03:55:35.717Z,8.00
2017-11-24T03:58:03.877Z,8.00
2017-11-24T04:00:32.758Z,8.00
2017-11-24T04:03:02.066Z,8.10
2017-11-24T04:05:31.106Z,8.20
2017-11-24T04:07:59.238Z,8.10
2017-11-24T04:10:28.142Z,8.20
2017-11-24T04:12:56.199Z,8.20
2017-11-24T04:15:25.041Z,8.20
2017-11-24T04:17:53.178Z,8.30
2017-11-24T04:20:23.678Z,8.30
2017-11-24T04:22:51.852Z,8.40
2017-11-24T04:25:19.970Z,8.30
2017-11-24T04:27:48.960Z,8.40
2017-11-24T04:30:17.089Z,8.40
2017-11-24T04:32:45.229Z,8.40
2017-11-24T04:35:13.309Z,8.30
2017-11-24T04:37:42.164Z,8.50
2017-11-24T04:40:10.328Z,8.50
2017-11-24T04:42:38.509Z,8.50
2017-11-24T04:45:06.592Z,8.50
2017-11-24T04:47:34.701Z,8.60
2017-11-24T04:50:02.849Z,8.60
2017-11-24T04:52:31.342Z,8.60
2017-11-24T04:54:59.442Z,8.60
2017-11-24T04:57:27.785Z,8.60
2017-11-24T04:59:56.018Z,8.60
2017-11-24T05:02:24.856Z,8.60
2017-11-24T05:04:52.934Z,8.60
2017-11-24T05:07:21.061Z,8.60
2017-11-24T05:09:49.932Z,8.60
2017-11-24T05:12:18.009Z,8.60
2017-11-24T05:14:46.824Z,8.50
2017-11-24T05:17:15.959Z,8.60
2017-11-24T05:19:44.890Z,8.70
2017-11-24T05:22:12.985Z,8.70
2017-11-24T05:24:41.286Z,8.70
2017-11-24T05:27:09.385Z,8.80
2017-11-24T05:29:37.457Z,8.80
2017-11-24T05:32:05.554Z,8.80
2017-11-24T05:34:34.386Z,8.80
2017-11-24T05:37:02.481Z,8.80
2017-11-24T05:39:30.549Z,8.80
2017-11-24T05:41:58.624Z,8.80
2017-11-24T05:44:27.160Z,8.90
2017-11-24T05:46:55.273Z,9.00
2017-11-24T05:49:23.350Z,8.90
2017-11-24T05:51:51.424Z,9.10
2017-11-24T05:54:19.537Z,9.10
2017-11-24T05:56:47.604Z,9.10
2017-11-24T05:59:15.725Z,9.10
2017-11-24T06:01:43.816Z,9.10
2017-11-24T06:04:11.873Z,9.00
2017-11-24T06:06:40.056Z,8.90
2017-11-24T06:09:08.533Z,8.90
2017-11-24T06:11:36.648Z,8.90
2017-11-24T06:14:04.859Z,9.00
2017-11-24T06:16:33.265Z,8.90
2017-11-24T06:19:01.366Z,8.90
2017-11-24T06:21:29.977Z,8.80
2017-11-24T06:23:58.389Z,8.80
2017-11-24T06:26:26.883Z,8.90
2017-11-24T06:28:54.950Z,8.90
2017-11-24T06:31:23.015Z,8.80
2017-11-24T06:33:51.089Z,8.80
2017-11-24T06:36:20.006Z,8.90
2017-11-24T06:38:48.357Z,8.90
2017-11-24T06:41:16.499Z,8.90
2017-11-24T06:43:44.598Z,8.90
2017-11-24T06:46:12.707Z,8.80
2017-11-24T06:48:40.771Z,8.80
2017-11-24T06:51:08.844Z,8.80
2017-11-24T06:53:38.421Z,8.80
2017-11-24T06:56:06.527Z,8.90
2017-11-24T06:58:34.690Z,8.90
2017-11-24T07:01:03.201Z,8.90
2017-11-24T07:03:31.348Z,8.90
2017-11-24T07:05:59.412Z,8.80
2017-11-24T07:08:27.526Z,8.70
2017-11-24T07:10:56.409Z,8.90
2017-11-24T07:13:24.511Z,8.90
2017-11-24T07:15:52.632Z,8.90
2017-11-24T07:18:20.760Z,8.90
2017-11-24T07:20:49.563Z,8.90
2017-11-24T07:23:17.677Z,8.80
2017-11-24T07:25:47.261Z,8.80
2017-11-24T07:28:15.349Z,8.90
2017-11-24T07:30:43.435Z,8.90
2017-11-24T07:33:11.861Z,8.90
2017-11-24T07:35:39.937Z,8.80
2017-11-24T07:38:08.017Z,8.80
2017-11-24T07:40:36.125Z,8.90
2017-11-24T07:43:04.374Z,8.80
2017-11-24T07:45:32.557Z,8.80
2017-11-24T07:48:00.622Z,8.80
2017-11-24T07:50:28.711Z,8.90
2017-11-24T07:52:57.312Z,8.90
2017-11-24T07:55:26.120Z,8.90
2017-11-24T07:57:54.214Z,9.00
2017-11-24T08:00:23.056Z,9.00
2017-11-24T08:02:51.133Z,9.00
2017-11-24T08:05:19.198Z,8.90
2017-11-24T08:07:48.749Z,8.80
2017-11-24T08:10:16.853Z,8.80
2017-11-24T08:12:44.921Z,8.90
2017-11-24T08:15:12.993Z,8.90
2017-11-24T08:17:41.044Z,8.90
2017-11-24T08:20:09.425Z,9.00
2017-11-24T08:22:37.550Z,9.00
2017-11-24T08:25:05.661Z,8.90
2017-11-24T08:27:33.801Z,9.00
2017-11-24T08:30:02.712Z,9.00
2017-11-24T08:32:31.554Z,9.10
2017-11-24T08:34:59.636Z,9.20
2017-11-24T08:37:27.709Z,9.20
2017-11-24T08:39:55.772Z,9.20
2017-11-24T08:42:23.856Z,9.20
2017-11-24T08:44:51.953Z,9.20
2017-11-24T08:47:25.529Z,9.30
2017-11-24T08:49:53.968Z,9.30
2017-11-24T08:52:22.108Z,9.30
2017-11-24T08:54:50.909Z,9.30
2017-11-24T08:57:19.001Z,9.40
2017-11-24T08:59:47.082Z,9.40
2017-11-24T09:02:16.590Z,9.40
2017-11-24T09:04:44.678Z,9.40
2017-11-24T09:07:12.725Z,9.40
2017-11-24T09:09:40.850Z,9.40
2017-11-24T09:12:09.752Z,9.40
2017-11-24T09:14:37.844Z,9.60
2017-11-24T09:17:06.684Z,9.70
2017-11-24T09:19:34.759Z,9.80
2017-11-24T09:22:03.020Z,9.80
2017-11-24T09:24:31.091Z,9.80
2017-11-24T09:26:59.660Z,10.00
2017-11-24T09:29:27.752Z,10.20
2017-11-24T09:31:55.852Z,10.40
2017-11-24T09:34:23.978Z,10.40
2017-11-24T09:36:52.088Z,10.50
2017-11-24T09:39:20.346Z,10.50
2017-11-24T09:41:48.501Z,10.50
2017-11-24T09:44:16.630Z,10.50
2017-11-24T09:46:45.303Z,10.50
2017-11-24T09:49:13.369Z,10.40
2017-11-24T09:51:41.485Z,10.40
2017-11-24T09:54:09.595Z,10.50
2017-11-24T09:56:37.723Z,10.50
2017-11-24T09:59:06.561Z,10.60
2017-11-24T10:01:34.690Z,10.70
2017-11-24T10:04:03.660Z,10.70
2017-11-24T10:06:32.021Z,10.60
2017-11-24T10:09:00.166Z,10.60
2017-11-24T10:11:28.260Z,10.60
2017-11-24T10:13:56.327Z,10.50
2017-11-24T10:16:24.384Z,10.50
2017-11-24T10:18:52.529Z,10.40
2017-11-24T10:21:25.528Z,10.60
2017-11-24T10:23:53.620Z,10.70
2017-11-24T10:26:21.724Z,10.80
2017-11-24T10:28:50.179Z,10.80
2017-11-24T10:31:18.252Z,10.80
2017-11-24T10:33:47.057Z,10.90
2017-11-24T10:36:15.169Z,10.90
2017-11-24T10:38:43.254Z,10.80
2017-11-24T10:41:11.729Z,10.80
2017-11-24T10:43:39.797Z,10.70
2017-11-24T10:46:08.301Z,10.70
2017-11-24T10:48:36.408Z,10.60
2017-11-24T10:51:04.700Z,10.50
2017-11-24T10:53:32.781Z,10.50
2017-11-24T10:56:00.865Z,10.40
2017-11-24T10:58:29.704Z,10.40
2017-11-24T11:00:57.761Z,10.40
2017-11-24T11:03:25.832Z,10.40
2017-11-24T11:05:53.903Z,10.40
2017-11-24T11:08:22.473Z,10.30
2017-11-24T11:10:50.604Z,10.40
2017-11-24T11:13:18.657Z,10.50
2017-11-24T11:15:46.718Z,10.40
2017-11-24T11:18:14.769Z,10.40
2017-11-24T11:20:43.280Z,10.40
2017-11-24T11:23:12.067Z,10.50
2017-11-24T11:25:40.650Z,10.50
2017-11-24T11:28:10.157Z,10.60
2017-11-24T11:30:38.844Z,10.50
2017-11-24T11:33:08.348Z,10.50
2017-11-24T11:35:36.745Z,10.50
2017-11-24T11:38:05.925Z,10.60
2017-11-24T11:40:34.400Z,10.60
2017-11-24T11:43:02.487Z,10.60
2017-11-24T11:45:30.978Z,10.70
2017-11-24T11:47:59.093Z,10.70
2017-11-24T11:50:27.987Z,10.70
2017-11-24T11:52:56.098Z,10.60
2017-11-24T11:55:24.217Z,10.70
2017-11-24T11:57:52.760Z,10.80
2017-11-24T12:00:20.868Z,10.60
2017-11-24T12:02:48.977Z,10.40
2017-11-24T12:05:17.049Z,10.30
2017-11-24T12:07:45.128Z,10.40
2017-11-24T12:10:13.282Z,10.40
2017-11-24T12:12:42.104Z,10.40
2017-11-24T12:15:10.282Z,10.40
2017-11-24T12:17:38.412Z,10.50
2017-11-24T12:20:07.237Z,10.50
2017-11-24T12:22:35.617Z,10.50
2017-11-24T12:25:04.541Z,10.50
2017-11-24T12:27:32.693Z,10.50
2017-11-24T12:30:00.805Z,10.50
2017-11-24T12:32:28.878Z,10.50
2017-11-24T12:34:57.021Z,10.40
2017-11-24T12:37:25.324Z,10.40
2017-11-24T12:39:53.726Z,10.40
2017-11-24T12:42:22.206Z,10.40
2017-11-24T12:44:50.696Z,10.40
2017-11-24T12:47:20.135Z,10.30
2017-11-24T12:49:48.694Z,10.40
2017-11-24T12:52:17.302Z,10.40
2017-11-24T12:54:46.287Z,10.30
2017-11-24T12:57:14.416Z,10.20
2017-11-24T12:59:42.523Z,10.30
2017-11-24T13:02:11.358Z,10.30
2017-11-24T13:04:39.456Z,10.30
2017-11-24T13:07:07.595Z,10.40
2017-11-24T13:09:35.719Z,10.40
2017-11-24T13:12:04.621Z,10.40
2017-11-24T13:14:32.770Z,10.40
2017-11-24T13:17:00.859Z,10.20
2017-11-24T13:19:28.941Z,10.20
2017-11-24T13:21:57.304Z,10.30
2017-11-24T13:24:26.140Z,10.20
2017-11-24T13:26:54.248Z,10.20
2017-11-24T13:29:22.446Z,10.20
2017-11-24T13:31:50.515Z,10.20
2017-11-24T13:34:18.598Z,10.20
2017-11-24T13:36:46.718Z,10.10
2017-11-24T13:39:14.831Z,10.10
2017-11-24T13:41:42.947Z,10.00
2017-11-24T13:44:11.539Z,10.10
2017-11-24T13:46:39.650Z,10.00
2017-11-24T13:49:08.495Z,9.90
2017-11-24T13:51:36.577Z,10.00
2017-11-24T13:54:04.683Z,10.00
2017-11-24T13:56:32.766Z,10.00
2017-11-24T13:59:00.845Z,10.00
2017-11-24T14:01:28.921Z,9.90
2017-11-24T14:03:57.022Z,9.90
2017-11-24T14:06:25.397Z,9.80
2017-11-24T14:08:53.783Z,9.80
2017-11-24T14:11:21.913Z,9.70
2017-11-24T14:13:50.749Z,9.60
2017-11-24T14:16:18.833Z,9.60
2017-11-24T14:18:46.955Z,9.60
2017-11-24T14:21:15.167Z,9.60
2017-11-24T14:23:43.394Z,9.70
2017-11-24T14:26:11.469Z,9.70
2017-11-24T14:28:39.546Z,9.70
2017-11-24T14:31:08.709Z,9.70
2017-11-24T14:33:36.837Z,9.60
2017-11-24T14:36:05.264Z,9.60
2017-11-24T14:38:33.389Z,9.60
2017-11-24T14:41:01.611Z,9.50
2017-11-24T14:43:29.711Z,9.50
2017-11-24T14:45:58.532Z,9.40
2017-11-24T14:48:28.658Z,9.50
2017-11-24T14:50:56.725Z,9.40
2017-11-24T14:53:25.570Z,9.30
2017-11-24T14:55:53.654Z,9.20
2017-11-24T14:58:21.823Z,9.10
2017-11-24T15:00:50.021Z,9.00
2017-11-24T15:03:18.129Z,9.00
2017-11-24T15:05:46.277Z,9.00
2017-11-24T15:08:14.446Z,8.90
2017-11-24T15:10:42.882Z,8.90
2017-11-24T15:13:12.478Z,8.90
2017-11-24T15:15:40.601Z,9.00
2017-11-24T15:18:08.698Z,9.00
2017-11-24T15:20:36.769Z,8.90
2017-11-24T15:23:04.936Z,8.90
2017-11-24T15:25:33.017Z,8.80
2017-11-24T15:28:01.201Z,8.70
2017-11-24T15:30:29.613Z,8.70
2017-11-24T15:32:57.692Z,8.60
2017-11-24T15:35:25.772Z,8.60
2017-11-24T15:37:54.581Z,8.60
2017-11-24T15:40:22.724Z,8.60
2017-11-24T15:42:51.551Z,8.50
2017-11-24T15:45:19.661Z,8.60
2017-11-24T15:47:47.741Z,8.60
2017-11-24T15:50:15.813Z,8.50
2017-11-24T15:52:43.947Z,8.50
2017-11-24T15:55:12.021Z,8.40
2017-11-24T15:57:40.100Z,8.30
2017-11-24T16:00:08.221Z,8.20
2017-11-24T16:02:37.030Z,8.20
2017-11-24T16:05:05.943Z,8.20
2017-11-24T16:07:34.011Z,8.10
2017-11-24T16:10:02.099Z,8.00
2017-11-24T16:12:30.153Z,7.90
2017-11-24T16:14:58.720Z,7.90
2017-11-24T16:17:26.793Z,7.90
2017-11-24T16:19:54.889Z,7.80
2017-11-24T16:22:22.965Z,7.80
2017-11-24T16:24:51.042Z,7.80
2017-11-24T16:27:19.133Z,7.80
2017-11-24T16:29:47.226Z,7.80
2017-11-24T16:32:17.173Z,7.70
2017-11-24T16:34:46.008Z,7.70
2017-11-24T16:37:14.124Z,7.70
2017-11-24T16:39:43.005Z,7.70
2017-11-24T16:42:11.238Z,7.60
2017-11-24T16:44:39.352Z,7.60
2017-11-24T16:47:07.539Z,7.50
2017-11-24T16:49:35.746Z,7.50
2017-11-24T16:52:03.857Z,7.50
2017-11-24T16:54:31.953Z,7.50
2017-11-24T16:57:01.586Z,7.40
2017-11-24T16:59:30.896Z,7.40
2017-11-24T17:01:59.036Z,7.30
2017-11-24T17:04:27.136Z,7.30
2017-11-24T17:06:55.253Z,7.20
2017-11-24T17:09:23.350Z,7.20
2017-11-24T17:11:51.473Z,7.20
2017-11-24T17:14:19.646Z,7.20
2017-11-24T17:16:47.745Z,7.10
2017-11-24T17:19:15.841Z,7.20
2017-11-24T17:21:43.934Z,7.10
2017-11-24T17:24:13.083Z,7.10
2017-11-24T17:26:41.254Z,7.20
2017-11-24T17:29:09.395Z,7.10
2017-11-24T17:31:37.509Z,7.10
2017-11-24T17:34:06.372Z,7.10
2017-11-24T17:36:34.488Z,7.10
2017-11-24T17:39:03.813Z,7.10
2017-11-24T17:41:32.682Z,7.10
2017-11-24T17:44:00.781Z,7.00
2017-11-24T17:46:28.873Z,6.90
2017-11-24T17:48:57.001Z,6.90
2017-11-24T17:51:25.141Z,6.90
2017-11-24T17:53:53.246Z,6.90
2017-11-24T17:56:22.861Z,6.90
2017-11-24T17:58:50.975Z,6.90
2017-11-24T18:01:34.093Z,6.90
2017-11-24T18:04:02.240Z,6.90
2017-11-24T18:06:31.296Z,6.90
2017-11-24T18:08:59.853Z,6.90
2017-11-24T18:11:27.966Z,6.90
2017-11-24T18:13:56.062Z,6.90
2017-11-24T18:16:24.174Z,6.90
2017-11-24T18:18:52.312Z,6.90
2017-11-24T18:21:20.478Z,6.90
2017-11-24T18:23:48.612Z,6.80
2017-11-24T18:26:16.729Z,6.80
2017-11-24T18:28:44.901Z,6.80
2017-11-24T18:31:13.153Z,6.70
2017-11-24T18:33:41.281Z,6.70
2017-11-24T18:36:09.516Z,6.70
2017-11-24T18:38:37.691Z,6.80
2017-11-24T18:41:05.897Z,6.70
2017-11-24T18:43:34.054Z,6.80
2017-11-24T18:46:02.595Z,6.80
2017-11-24T18:48:30.733Z,6.80
2017-11-24T18:50:58.836Z,6.70
2017-11-24T18:53:26.969Z,6.70
2017-11-24T18:55:56.268Z,6.70
2017-11-24T18:58:25.106Z,6.70
2017-11-24T19:00:53.386Z,6.70
2017-11-24T19:03:21.477Z,6.70
2017-11-24T19:05:49.735Z,6.60
2017-11-24T19:08:17.845Z,6.60
2017-11-24T19:10:45.954Z,6.60
2017-11-24T19:13:14.129Z,6.70
2017-11-24T19:15:42.674Z,6.70
2017-11-24T19:18:10.968Z,6.80
2017-11-24T19:20:39.861Z,6.80
2017-11-24T19:23:08.745Z,6.80
2017-11-24T19:25:37.598Z,6.80
2017-11-24T19:28:05.716Z,6.80
2017-11-24T19:30:34.553Z,6.80
2017-11-24T19:33:03.365Z,6.80
2017-11-24T19:35:31.546Z,6.80
2017-11-24T19:38:00.138Z,6.80
2017-11-24T19:40:28.234Z,6.80
2017-11-24T19:42:57.097Z,6.80
2017-11-24T19:45:25.217Z,6.70
2017-11-24T19:47:53.651Z,6.80
2017-11-24T19:50:22.226Z,6.70
2017-11-24T19:52:49.902Z,6.70
2017-11-24T19:55:18.298Z,6.70
2017-11-24T19:57:46.437Z,6.60
2017-11-24T20:00:14.909Z,6.60
2017-11-24T20:02:43.032Z,6.60
2017-11-24T20:05:11.855Z,6.50
2017-11-24T20:07:39.972Z,6.50
2017-11-24T20:10:08.150Z,6.50
2017-11-24T20:12:36.510Z,6.40
2017-11-24T20:15:04.710Z,6.30
2017-11-24T20:17:33.648Z,6.30
2017-11-24T20:20:01.910Z,6.30
2017-11-24T20:22:30.396Z,6.30
2017-11-24T20:24:58.520Z,6.30
2017-11-24T20:27:26.749Z,6.30
2017-11-24T20:29:54.857Z,6.30
2017-11-24T20:32:23.296Z,6.30
2017-11-24T20:34:51.696Z,6.30
2017-11-24T20:37:19.872Z,6.20
2017-11-24T20:39:47.973Z,6.20
2017-11-24T20:42:16.538Z,6.20
2017-11-24T20:44:44.617Z,6.20
2017-11-24T20:47:12.796Z,6.20
2017-11-24T20:49:40.885Z,6.10
2017-11-24T20:52:09.032Z,6.10
2017-11-24T20:54:37.178Z,6.10
2017-11-24T20:57:05.269Z,6.20
2017-11-24T20:59:33.669Z,6.10
2017-11-24T21:02:01.762Z,6.00
2017-11-24T21:04:30.654Z,6.10
2017-11-24T21:06:59.546Z,6.00
2017-11-24T21:09:28.464Z,6.00
2017-11-24T21:11:56.581Z,6.00
2017-11-24T21:14:24.691Z,6.00
2017-11-24T21:16:52.782Z,5.90
2017-11-24T21:19:20.848Z,5.90
2017-11-24T21:21:48.945Z,6.00
2017-11-24T21:24:17.067Z,6.00
2017-11-24T21:26:45.260Z,5.90
2017-11-24T21:29:13.873Z,5.90
2017-11-24T21:31:41.993Z,5.90
2017-11-24T21:34:10.393Z,5.90
2017-11-24T21:36:39.215Z,5.90
2017-11-24T21:39:07.505Z,5.90
2017-11-24T21:41:35.641Z,5.90
2017-11-24T21:44:05.218Z,5.90
2017-11-24T21:46:33.567Z,5.90
2017-11-24T21:49:02.046Z,5.90
2017-11-24T21:51:30.106Z,5.90
2017-11-24T21:53:58.171Z,5.90
2017-11-24T21:56:26.445Z,5.90
2017-11-24T21:58:54.530Z,5.80
2017-11-24T22:01:22.638Z,5.90
2017-11-24T22:03:51.098Z,5.90
2017-11-24T22:06:19.205Z,5.90
2017-11-24T22:08:47.286Z,5.90
2017-11-24T22:11:16.105Z,6.00
2017-11-24T22:13:44.205Z,5.90
2017-11-24T22:16:12.292Z,6.00
2017-11-24T22:18:40.379Z,6.00
2017-11-24T22:21:08.469Z,6.00
2017-11-24T22:23:37.298Z,6.00
2017-11-24T22:26:05.381Z,6.00
2017-11-24T22:28:33.489Z,6.00
2017-11-24T22:31:02.345Z,6.00
2017-11-24T22:33:30.465Z,6.00
2017-11-24T22:35:59.299Z,6.00
2017-11-24T22:38:27.405Z,6.10
2017-11-24T22:40:55.526Z,6.10
2017-11-24T22:43:23.657Z,6.00
2017-11-24T22:45:51.796Z,6.00
2017-11-24T22:48:20.483Z,5.90
2017-11-24T22:50:48.565Z,5.90
2017-11-24T22:53:16.622Z,5.80
2017-11-24T22:55:44.744Z,5.80
2017-11-24T22:58:12.898Z,5.80
2017-11-24T23:00:42.480Z,5.70
2017-11-24T23:03:10.757Z,5.80
2017-11-24T23:05:38.880Z,5.80
2017-11-24T23:08:07.697Z,5.80
2017-11-24T23:10:35.860Z,5.90
2017-11-24T23:13:04.402Z,5.90
2017-11-24T23:15:33.975Z,6.00
2017-11-24T23:18:02.261Z,6.10
2017-11-24T23:20:30.539Z,6.20
2017-11-24T23:22:58.596Z,6.20
2017-11-24T23:25:26.673Z,6.20
2017-11-24T23:27:54.762Z,6.30
2017-11-24T23:30:22.825Z,6.30
2017-11-24T23:32:50.869Z,6.30
2017-11-24T23:35:18.966Z,6.40
2017-11-24T23:37:47.473Z,6.40
2017-11-24T23:40:15.565Z,6.40
2017-11-24T23:42:43.638Z,6.40
2017-11-24T23:45:11.705Z,6.40
2017-11-24T23:47:40.554Z,6.40
2017-11-24T23:50:08.645Z,6.40
2017-11-24T23:52:36.921Z,6.40
2017-11-24T23:55:05.002Z,6.40
2017-11-24T23:57:33.080Z,6.40
